James M Cox Dayton International Airport
KDAY : now visible

Airfield :











YOU CAN JOIN US ON...

 
LOGIN :

Register | Disclaimer

   EN    FR    IT 

 









Legend :    VFR   Marginal VFR   IFR   Intensive IFR   Very Intensive IFR
Visi :
Ceiling :
>= 8 km
>= 3000ft
5 to 8 km
1000 to 3000 ft
1500m to 5 km
500 to 1000 ft
800 to 1500m
200 to 500 ft
< 800m
< 200 ft
Symbols :   Thunderstorms  Fog  Heavy snow  Heavy precipitations  Wind > 20 kt






- Airport Elevation : 1009 ft
- IATA code : DAY


KDAY - James M Cox Dayton International

CURRENT METAR :
  • 281056Z 33007KT 6SM BR FEW009 OVC013 06/04 A2987 RMK AO2 RAB38E50 SLP117 P0000 T00560039

EXPIRED METARs :
  • 281034Z 33005KT 7SM FEW009 OVC015 06/04 A2986 RMK AO2 T00560039
  • 281024Z 32004KT 8SM OVC013 06/04 A2986 RMK AO2 T00610039
  • 280956Z 30004KT 9SM SCT014 OVC020 06/04 A2985 RMK AO2 RAE07 SLP110 P0000 T00560039
  • 280913Z 29004KT 9SM OVC016 06/04 A2984 RMK AO2 RAE07 P0000 T00610039
  • 280856Z 29006KT 8SM -RA OVC014 06/04 A2984 RMK AO2 RAB51 SLP106 P0000 60000 T00610039 52019
  • 280833Z 29005KT 9SM OVC014 06/04 A2983 RMK AO2 T00610039
  • 280806Z 28005KT 8SM BKN016 OVC065 06/04 A2983 RMK AO2 T00560039

TAF KDAY
Valid from the 28 at 06:00 until the 29 at 06:00 UTC


280534Z 2806/2906 29008KT P6SM OVC012
TEMPO 2807/2810 OVC008
FM281100 31004KT P6SM OVC015
FM282000 21004KT P6SM OVC022
FM290100 17004KT P6SM BKN035
KZID FIR / North America



MET'MAP, your aeronautical weather chart ! - Copyright ORBIFLY December 2007 - Disclaimer

ORBIFLY MET'MAP TEAM :

Programming & Development : Alexandra Zaïnal
Original concept : Baudouin d'Aumeries
Technical & hardware support : Manuel Goepfert
Assistance : Marc-Olivier Méhu




SOURCES & CREDITS :

   NOAA       Earth
Advisory